This is the latest recevied weather packets stored in our database for station/object OH2MUI. If no packets are shown the sender has not sent any weather packets the latest 10 day(s).
| Time | Temp. | Humidity | Pressure | Rain* | Wind** | Luminosity | Snow |
|---|---|---|---|---|---|---|---|
| 1778072664 | 10.56° C | 40% | 1014.7 hPa | 0 mm | - | - | - |
| 1778071654 | 10.56° C | 42% | 1014.8 hPa | 0 mm | - | - | - |
| 1778069419 | 11.11° C | 39% | 1014.7 hPa | 0 mm | - | - | - |
| 1778068329 | 10.56° C | 44% | 1014.7 hPa | 0 mm | - | - | - |
| 1778066124 | 10.56° C | 40% | 1015 hPa | 0 mm | - | - | - |
| 1778061849 | 10.56° C | 42% | 1014.8 hPa | 0 mm | - | - | - |
| 1778059684 | 10° C | 48% | 1014.6 hPa | 0 mm | - | - | - |
| 1778058664 | 9.44° C | 49% | 1014.5 hPa | 0 mm | - | - | - |
| 1778057559 | 10° C | 48% | 1014.5 hPa | 0 mm | - | - | - |
| 1778056424 | 9.44° C | 49% | 1014.4 hPa | 0 mm | - | - | - |
| 1778055429 | 8.89° C | 52% | 1014.4 hPa | 0 mm | - | - | - |
| 1778054252 | 8.89° C | 54% | 1014.3 hPa | 0 mm | - | - | - |
| 1778053064 | 8.33° C | 56% | 1014.1 hPa | 0 mm | - | - | - |
| 1778052047 | 8.33° C | 58% | 1014 hPa | 0 mm | - | - | - |
| 1778051029 | 7.78° C | 63% | 1014 hPa | 0 mm | - | - | - |
| 1778049974 | 7.22° C | 67% | 1014 hPa | 0 mm | - | - | - |
| 1778048829 | 6.11° C | 73% | 1014.1 hPa | 0 mm | - | - | - |
| 1778047664 | 5.56° C | 81% | 1014 hPa | 0 mm | - | - | - |
| 1778046645 | 5° C | 83% | 1013.8 hPa | 0 mm | - | - | - |
| 1778045524 | 3.89° C | 86% | 1013.4 hPa | 0 mm | - | - | - |
| 1778044378 | 3.33° C | 88% | 1013.2 hPa | 0 mm | - | - | - |
| 1778043304 | 2.78° C | 90% | 1013 hPa | 0 mm | - | - | - |
| 1778042144 | 2.22° C | 91% | 1012.9 hPa | 0 mm | - | - | - |
| 1778041030 | 1.11° C | - | - | 0 mm | - | - | - |
| 1778041024 | 1.11° C | 92% | 1012.7 hPa | 0 mm | - | - | - |
* Rain latest hour (hover to see other rain measurements)
** Current wind speed in m/s (hover to see current wind gust speed)